sensor_id;sensor_type;location;lat;lon;timestamp;temperature;humidity
27492;DHT22;14927;51.210;6.838;2023-12-14T00:02:12;13.70;70.50
27492;DHT22;14927;51.210;6.838;2023-12-14T00:04:57;13.70;70.50
27492;DHT22;14927;51.210;6.838;2023-12-14T00:07:41;13.70;70.50
27492;DHT22;14927;51.210;6.838;2023-12-14T00:10:26;13.70;70.40
27492;DHT22;14927;51.210;6.838;2023-12-14T00:13:11;13.70;70.40
27492;DHT22;14927;51.210;6.838;2023-12-14T00:15:55;13.70;70.40
27492;DHT22;14927;51.210;6.838;2023-12-14T00:18:40;13.70;70.40
27492;DHT22;14927;51.210;6.838;2023-12-14T00:21:24;13.70;70.50
27492;DHT22;14927;51.210;6.838;2023-12-14T00:24:09;13.70;70.40
27492;DHT22;14927;51.210;6.838;2023-12-14T00:26:54;13.70;70.50
27492;DHT22;14927;51.210;6.838;2023-12-14T00:29:38;13.90;70.60
27492;DHT22;14927;51.210;6.838;2023-12-14T00:32:23;13.80;71.20
27492;DHT22;14927;51.210;6.838;2023-12-14T00:35:07;13.70;70.40
27492;DHT22;14927;51.210;6.838;2023-12-14T00:37:52;13.70;70.40
27492;DHT22;14927;51.210;6.838;2023-12-14T00:40:37;13.70;70.50
27492;DHT22;14927;51.210;6.838;2023-12-14T00:43:22;13.70;70.50
27492;DHT22;14927;51.210;6.838;2023-12-14T00:46:07;13.70;70.40
27492;DHT22;14927;51.210;6.838;2023-12-14T00:48:52;13.70;70.50
27492;DHT22;14927;51.210;6.838;2023-12-14T00:51:36;13.90;70.70
27492;DHT22;14927;51.210;6.838;2023-12-14T00:54:21;13.70;70.50
27492;DHT22;14927;51.210;6.838;2023-12-14T00:57:06;13.70;70.60
27492;DHT22;14927;51.210;6.838;2023-12-14T00:59:51;13.70;70.60
27492;DHT22;14927;51.210;6.838;2023-12-14T01:02:36;13.60;70.60
27492;DHT22;14927;51.210;6.838;2023-12-14T01:05:21;13.60;70.70
27492;DHT22;14927;51.210;6.838;2023-12-14T01:08:05;13.60;70.70
27492;DHT22;14927;51.210;6.838;2023-12-14T01:10:50;13.60;70.80
27492;DHT22;14927;51.210;6.838;2023-12-14T01:13:35;13.60;70.80
27492;DHT22;14927;51.210;6.838;2023-12-14T01:16:20;13.60;70.80
27492;DHT22;14927;51.210;6.838;2023-12-14T01:19:04;13.60;70.90
27492;DHT22;14927;51.210;6.838;2023-12-14T01:21:50;13.60;70.90
27492;DHT22;14927;51.210;6.838;2023-12-14T01:24:34;13.60;70.80
27492;DHT22;14927;51.210;6.838;2023-12-14T01:27:19;13.60;70.80
27492;DHT22;14927;51.210;6.838;2023-12-14T01:30:04;13.60;70.70
27492;DHT22;14927;51.210;6.838;2023-12-14T01:32:49;13.60;70.50
27492;DHT22;14927;51.210;6.838;2023-12-14T01:35:33;13.60;70.50
27492;DHT22;14927;51.210;6.838;2023-12-14T01:38:18;13.60;70.40
27492;DHT22;14927;51.210;6.838;2023-12-14T01:41:02;13.70;70.20
27492;DHT22;14927;51.210;6.838;2023-12-14T01:43:47;13.60;70.10
27492;DHT22;14927;51.210;6.838;2023-12-14T01:46:31;13.60;70.00
27492;DHT22;14927;51.210;6.838;2023-12-14T01:49:16;13.50;69.90
27492;DHT22;14927;51.210;6.838;2023-12-14T01:52:01;13.50;69.80
27492;DHT22;14927;51.210;6.838;2023-12-14T01:54:45;13.60;69.90
27492;DHT22;14927;51.210;6.838;2023-12-14T01:57:30;13.40;69.70
27492;DHT22;14927;51.210;6.838;2023-12-14T02:03:19;13.40;69.80
27492;DHT22;14927;51.210;6.838;2023-12-14T02:06:04;13.30;69.90
27492;DHT22;14927;51.210;6.838;2023-12-14T02:08:48;13.30;70.00
27492;DHT22;14927;51.210;6.838;2023-12-14T02:11:33;13.30;70.80
27492;DHT22;14927;51.210;6.838;2023-12-14T02:14:17;13.40;70.10
27492;DHT22;14927;51.210;6.838;2023-12-14T02:17:02;13.30;69.90
27492;DHT22;14927;51.210;6.838;2023-12-14T02:19:47;13.30;69.80
27492;DHT22;14927;51.210;6.838;2023-12-14T02:22:50;13.30;69.70
27492;DHT22;14927;51.210;6.838;2023-12-14T02:25:36;13.30;69.40
27492;DHT22;14927;51.210;6.838;2023-12-14T02:28:20;13.40;70.20
27492;DHT22;14927;51.210;6.838;2023-12-14T02:31:05;13.20;69.10
27492;DHT22;14927;51.210;6.838;2023-12-14T02:33:49;13.20;69.00
27492;DHT22;14927;51.210;6.838;2023-12-14T02:36:34;13.20;69.00
27492;DHT22;14927;51.210;6.838;2023-12-14T02:39:18;13.10;68.90
27492;DHT22;14927;51.210;6.838;2023-12-14T02:42:03;13.10;68.90
27492;DHT22;14927;51.210;6.838;2023-12-14T02:44:48;13.00;68.80
27492;DHT22;14927;51.210;6.838;2023-12-14T02:47:33;13.10;69.60
27492;DHT22;14927;51.210;6.838;2023-12-14T02:50:17;13.00;68.70
27492;DHT22;14927;51.210;6.838;2023-12-14T02:53:02;13.00;68.70
27492;DHT22;14927;51.210;6.838;2023-12-14T02:55:54;13.00;68.80
27492;DHT22;14927;51.210;6.838;2023-12-14T02:58:42;12.90;68.70
27492;DHT22;14927;51.210;6.838;2023-12-14T03:01:35;12.90;68.80
27492;DHT22;14927;51.210;6.838;2023-12-14T03:04:19;13.10;69.00
27492;DHT22;14927;51.210;6.838;2023-12-14T03:07:04;12.90;68.90
27492;DHT22;14927;51.210;6.838;2023-12-14T03:09:48;12.90;68.90
27492;DHT22;14927;51.210;6.838;2023-12-14T03:12:33;12.90;68.90
27492;DHT22;14927;51.210;6.838;2023-12-14T03:15:18;12.90;68.90
27492;DHT22;14927;51.210;6.838;2023-12-14T03:18:03;12.90;68.90
27492;DHT22;14927;51.210;6.838;2023-12-14T03:20:47;12.90;68.80
27492;DHT22;14927;51.210;6.838;2023-12-14T03:23:32;12.80;68.80
27492;DHT22;14927;51.210;6.838;2023-12-14T03:26:16;12.90;68.90
27492;DHT22;14927;51.210;6.838;2023-12-14T03:29:01;12.80;69.00
27492;DHT22;14927;51.210;6.838;2023-12-14T03:31:46;12.80;69.00
27492;DHT22;14927;51.210;6.838;2023-12-14T03:34:30;12.70;69.00
27492;DHT22;14927;51.210;6.838;2023-12-14T03:37:15;12.70;68.90
27492;DHT22;14927;51.210;6.838;2023-12-14T03:39:59;12.70;68.80
27492;DHT22;14927;51.210;6.838;2023-12-14T03:42:44;12.70;68.80
27492;DHT22;14927;51.210;6.838;2023-12-14T03:45:29;12.60;68.70
27492;DHT22;14927;51.210;6.838;2023-12-14T03:48:14;12.70;68.80
27492;DHT22;14927;51.210;6.838;2023-12-14T03:51:05;12.60;68.80
27492;DHT22;14927;51.210;6.838;2023-12-14T03:53:50;12.50;68.70
27492;DHT22;14927;51.210;6.838;2023-12-14T03:56:34;12.80;69.00
27492;DHT22;14927;51.210;6.838;2023-12-14T03:59:22;12.60;68.90
27492;DHT22;14927;51.210;6.838;2023-12-14T04:02:06;12.60;68.90
27492;DHT22;14927;51.210;6.838;2023-12-14T04:04:51;12.60;68.90
27492;DHT22;14927;51.210;6.838;2023-12-14T04:07:36;12.50;69.00
27492;DHT22;14927;51.210;6.838;2023-12-14T04:10:24;12.70;69.10
27492;DHT22;14927;51.210;6.838;2023-12-14T04:13:09;12.50;68.80
27492;DHT22;14927;51.210;6.838;2023-12-14T04:15:53;12.50;68.70
27492;DHT22;14927;51.210;6.838;2023-12-14T04:18:38;12.50;68.60
27492;DHT22;14927;51.210;6.838;2023-12-14T04:21:23;12.40;68.50
27492;DHT22;14927;51.210;6.838;2023-12-14T04:24:08;12.40;68.50
27492;DHT22;14927;51.210;6.838;2023-12-14T04:26:53;12.40;68.50
27492;DHT22;14927;51.210;6.838;2023-12-14T04:29:38;12.40;68.60
27492;DHT22;14927;51.210;6.838;2023-12-14T04:32:22;12.40;68.70
27492;DHT22;14927;51.210;6.838;2023-12-14T04:35:07;12.40;69.50
27492;DHT22;14927;51.210;6.838;2023-12-14T04:37:52;12.30;68.70
27492;DHT22;14927;51.210;6.838;2023-12-14T04:40:37;12.30;68.70
27492;DHT22;14927;51.210;6.838;2023-12-14T04:43:21;12.30;68.70
27492;DHT22;14927;51.210;6.838;2023-12-14T04:46:06;12.30;68.60
27492;DHT22;14927;51.210;6.838;2023-12-14T04:48:50;12.30;68.50
27492;DHT22;14927;51.210;6.838;2023-12-14T04:51:35;12.30;68.50
27492;DHT22;14927;51.210;6.838;2023-12-14T04:54:20;12.30;69.20
27492;DHT22;14927;51.210;6.838;2023-12-14T04:57:04;12.30;68.30
27492;DHT22;14927;51.210;6.838;2023-12-14T04:59:49;12.30;68.30
27492;DHT22;14927;51.210;6.838;2023-12-14T05:02:34;12.20;68.10
27492;DHT22;14927;51.210;6.838;2023-12-14T05:05:18;12.30;68.10
27492;DHT22;14927;51.210;6.838;2023-12-14T05:08:03;12.40;68.30
27492;DHT22;14927;51.210;6.838;2023-12-14T05:10:48;12.20;68.30
27492;DHT22;14927;51.210;6.838;2023-12-14T05:13:32;12.20;68.40
27492;DHT22;14927;51.210;6.838;2023-12-14T05:16:17;12.20;68.50
27492;DHT22;14927;51.210;6.838;2023-12-14T05:19:01;12.10;68.50
27492;DHT22;14927;51.210;6.838;2023-12-14T05:21:46;12.10;68.60
27492;DHT22;14927;51.210;6.838;2023-12-14T05:24:31;12.10;68.70
27492;DHT22;14927;51.210;6.838;2023-12-14T05:27:15;12.10;68.80
27492;DHT22;14927;51.210;6.838;2023-12-14T05:30:00;12.10;68.90
27492;DHT22;14927;51.210;6.838;2023-12-14T05:32:44;12.20;69.10
27492;DHT22;14927;51.210;6.838;2023-12-14T05:35:29;12.10;69.00
27492;DHT22;14927;51.210;6.838;2023-12-14T05:38:14;12.10;69.00
27492;DHT22;14927;51.210;6.838;2023-12-14T05:40:59;12.10;69.00
27492;DHT22;14927;51.210;6.838;2023-12-14T05:43:44;12.20;69.10
27492;DHT22;14927;51.210;6.838;2023-12-14T05:46:29;12.10;69.00
27492;DHT22;14927;51.210;6.838;2023-12-14T05:49:13;12.10;69.10
27492;DHT22;14927;51.210;6.838;2023-12-14T05:51:59;12.10;69.10
27492;DHT22;14927;51.210;6.838;2023-12-14T05:54:44;12.20;69.20
27492;DHT22;14927;51.210;6.838;2023-12-14T05:57:29;12.10;69.20
27492;DHT22;14927;51.210;6.838;2023-12-14T06:00:14;12.10;69.10
27492;DHT22;14927;51.210;6.838;2023-12-14T06:02:58;12.10;69.00
27492;DHT22;14927;51.210;6.838;2023-12-14T06:05:43;12.20;69.00
27492;DHT22;14927;51.210;6.838;2023-12-14T06:08:28;12.10;68.90
27492;DHT22;14927;51.210;6.838;2023-12-14T06:11:13;12.10;68.80
27492;DHT22;14927;51.210;6.838;2023-12-14T06:13:57;12.20;68.80
27492;DHT22;14927;51.210;6.838;2023-12-14T06:16:43;12.20;68.70
27492;DHT22;14927;51.210;6.838;2023-12-14T06:19:28;12.30;68.70
27492;DHT22;14927;51.210;6.838;2023-12-14T06:22:15;12.20;68.60
27492;DHT22;14927;51.210;6.838;2023-12-14T06:25:00;12.20;68.50
27492;DHT22;14927;51.210;6.838;2023-12-14T06:27:44;12.20;68.50
27492;DHT22;14927;51.210;6.838;2023-12-14T06:30:29;12.20;68.40
27492;DHT22;14927;51.210;6.838;2023-12-14T06:33:14;12.20;68.50
27492;DHT22;14927;51.210;6.838;2023-12-14T06:36:02;12.20;68.50
27492;DHT22;14927;51.210;6.838;2023-12-14T06:38:47;12.10;68.50
27492;DHT22;14927;51.210;6.838;2023-12-14T06:41:32;12.10;68.50
27492;DHT22;14927;51.210;6.838;2023-12-14T06:44:17;12.30;68.50
27492;DHT22;14927;51.210;6.838;2023-12-14T06:47:05;12.20;68.40
27492;DHT22;14927;51.210;6.838;2023-12-14T06:49:50;12.20;68.30
27492;DHT22;14927;51.210;6.838;2023-12-14T06:52:35;12.20;68.30
27492;DHT22;14927;51.210;6.838;2023-12-14T06:55:19;12.40;68.40
27492;DHT22;14927;51.210;6.838;2023-12-14T06:58:04;12.10;68.20
27492;DHT22;14927;51.210;6.838;2023-12-14T07:00:53;12.40;68.20
27492;DHT22;14927;51.210;6.838;2023-12-14T07:03:40;12.10;67.90
27492;DHT22;14927;51.210;6.838;2023-12-14T07:06:25;12.30;67.90
27492;DHT22;14927;51.210;6.838;2023-12-14T07:09:10;12.20;67.90
27492;DHT22;14927;51.210;6.838;2023-12-14T07:11:54;12.10;67.70
27492;DHT22;14927;51.210;6.838;2023-12-14T07:14:39;12.10;67.70
27492;DHT22;14927;51.210;6.838;2023-12-14T07:17:24;12.10;67.60
27492;DHT22;14927;51.210;6.838;2023-12-14T07:20:10;12.10;67.60
27492;DHT22;14927;51.210;6.838;2023-12-14T07:22:55;12.10;67.50
27492;DHT22;14927;51.210;6.838;2023-12-14T07:25:39;12.20;67.60
27492;DHT22;14927;51.210;6.838;2023-12-14T07:28:24;12.20;67.60
27492;DHT22;14927;51.210;6.838;2023-12-14T07:31:09;12.10;67.40
27492;DHT22;14927;51.210;6.838;2023-12-14T07:33:53;12.10;67.40
27492;DHT22;14927;51.210;6.838;2023-12-14T07:36:38;12.10;67.30
27492;DHT22;14927;51.210;6.838;2023-12-14T07:39:23;12.10;67.20
27492;DHT22;14927;51.210;6.838;2023-12-14T07:42:18;12.10;67.20
27492;DHT22;14927;51.210;6.838;2023-12-14T07:45:05;12.10;67.30
27492;DHT22;14927;51.210;6.838;2023-12-14T07:47:59;12.10;67.30
27492;DHT22;14927;51.210;6.838;2023-12-14T07:50:44;12.10;67.30
27492;DHT22;14927;51.210;6.838;2023-12-14T07:53:31;12.10;67.30
27492;DHT22;14927;51.210;6.838;2023-12-14T07:56:16;12.10;67.10
27492;DHT22;14927;51.210;6.838;2023-12-14T07:59:00;12.10;67.10
27492;DHT22;14927;51.210;6.838;2023-12-14T08:01:45;12.30;67.20
27492;DHT22;14927;51.210;6.838;2023-12-14T08:04:30;12.10;67.00
27492;DHT22;14927;51.210;6.838;2023-12-14T08:07:15;12.00;66.70
27492;DHT22;14927;51.210;6.838;2023-12-14T08:10:00;12.10;66.90
27492;DHT22;14927;51.210;6.838;2023-12-14T08:12:46;12.10;66.80
27492;DHT22;14927;51.210;6.838;2023-12-14T08:15:35;12.00;66.70
27492;DHT22;14927;51.210;6.838;2023-12-14T08:18:20;12.00;66.70
27492;DHT22;14927;51.210;6.838;2023-12-14T08:21:05;12.10;66.60
27492;DHT22;14927;51.210;6.838;2023-12-14T08:23:49;11.90;66.50
27492;DHT22;14927;51.210;6.838;2023-12-14T08:26:34;11.90;66.50
27492;DHT22;14927;51.210;6.838;2023-12-14T08:29:19;11.90;66.60
27492;DHT22;14927;51.210;6.838;2023-12-14T08:32:03;11.90;66.50
27492;DHT22;14927;51.210;6.838;2023-12-14T08:34:49;12.20;66.70
27492;DHT22;14927;51.210;6.838;2023-12-14T08:37:35;12.00;66.40
27492;DHT22;14927;51.210;6.838;2023-12-14T08:40:21;11.90;66.30
27492;DHT22;14927;51.210;6.838;2023-12-14T08:43:10;12.00;66.30
27492;DHT22;14927;51.210;6.838;2023-12-14T08:45:54;11.90;66.20
27492;DHT22;14927;51.210;6.838;2023-12-14T08:48:40;11.90;66.20
27492;DHT22;14927;51.210;6.838;2023-12-14T08:51:41;11.90;66.20
27492;DHT22;14927;51.210;6.838;2023-12-14T08:54:36;11.90;66.00
27492;DHT22;14927;51.210;6.838;2023-12-14T08:57:21;11.90;66.10
27492;DHT22;14927;51.210;6.838;2023-12-14T09:00:10;11.80;66.10
27492;DHT22;14927;51.210;6.838;2023-12-14T09:03:02;11.80;66.20
27492;DHT22;14927;51.210;6.838;2023-12-14T09:05:59;11.90;66.20
27492;DHT22;14927;51.210;6.838;2023-12-14T09:08:49;11.80;66.30
27492;DHT22;14927;51.210;6.838;2023-12-14T09:11:34;11.50;66.00
27492;DHT22;14927;51.210;6.838;2023-12-14T09:14:20;11.80;66.10
27492;DHT22;14927;51.210;6.838;2023-12-14T09:17:05;11.80;66.10
27492;DHT22;14927;51.210;6.838;2023-12-14T09:19:49;11.80;66.20
27492;DHT22;14927;51.210;6.838;2023-12-14T09:22:35;11.80;66.10
27492;DHT22;14927;51.210;6.838;2023-12-14T09:25:19;11.70;65.90
27492;DHT22;14927;51.210;6.838;2023-12-14T09:28:04;11.70;65.90
27492;DHT22;14927;51.210;6.838;2023-12-14T09:30:49;11.90;65.80
27492;DHT22;14927;51.210;6.838;2023-12-14T09:33:35;11.60;65.60
27492;DHT22;14927;51.210;6.838;2023-12-14T09:36:20;11.70;65.50
27492;DHT22;14927;51.210;6.838;2023-12-14T09:39:05;11.70;65.50
27492;DHT22;14927;51.210;6.838;2023-12-14T09:42:05;11.70;65.50
27492;DHT22;14927;51.210;6.838;2023-12-14T09:44:52;11.70;65.50
27492;DHT22;14927;51.210;6.838;2023-12-14T09:47:38;11.70;65.70
27492;DHT22;14927;51.210;6.838;2023-12-14T09:50:24;11.70;65.90
27492;DHT22;14927;51.210;6.838;2023-12-14T09:53:08;11.90;65.90
27492;DHT22;14927;51.210;6.838;2023-12-14T09:55:53;11.60;65.80
27492;DHT22;14927;51.210;6.838;2023-12-14T09:58:41;11.60;65.80
27492;DHT22;14927;51.210;6.838;2023-12-14T10:01:27;11.60;65.80
27492;DHT22;14927;51.210;6.838;2023-12-14T10:04:14;11.60;65.90
27492;DHT22;14927;51.210;6.838;2023-12-14T10:07:00;11.60;65.90
27492;DHT22;14927;51.210;6.838;2023-12-14T10:09:50;11.60;65.90
27492;DHT22;14927;51.210;6.838;2023-12-14T10:12:51;11.60;65.90
27492;DHT22;14927;51.210;6.838;2023-12-14T10:15:45;11.60;65.60
27492;DHT22;14927;51.210;6.838;2023-12-14T10:18:32;11.60;65.70
27492;DHT22;14927;51.210;6.838;2023-12-14T10:21:21;11.80;65.80
27492;DHT22;14927;51.210;6.838;2023-12-14T10:24:06;11.60;65.70
27492;DHT22;14927;51.210;6.838;2023-12-14T10:26:50;11.60;65.70
27492;DHT22;14927;51.210;6.838;2023-12-14T10:29:37;11.60;65.70
27492;DHT22;14927;51.210;6.838;2023-12-14T10:32:24;11.60;65.80
27492;DHT22;14927;51.210;6.838;2023-12-14T10:35:08;11.70;65.70
27492;DHT22;14927;51.210;6.838;2023-12-14T10:37:55;11.50;65.60
27492;DHT22;14927;51.210;6.838;2023-12-14T10:40:44;11.60;65.40
27492;DHT22;14927;51.210;6.838;2023-12-14T10:43:29;11.70;65.30
27492;DHT22;14927;51.210;6.838;2023-12-14T10:46:16;11.60;65.00
27492;DHT22;14927;51.210;6.838;2023-12-14T10:49:01;11.70;65.60
27492;DHT22;14927;51.210;6.838;2023-12-14T10:51:48;11.60;64.70
27492;DHT22;14927;51.210;6.838;2023-12-14T10:54:35;11.80;64.70
27492;DHT22;14927;51.210;6.838;2023-12-14T10:57:22;11.70;64.60
27492;DHT22;14927;51.210;6.838;2023-12-14T11:00:07;11.70;64.70
27492;DHT22;14927;51.210;6.838;2023-12-14T11:02:52;11.60;64.50
27492;DHT22;14927;51.210;6.838;2023-12-14T11:05:38;11.70;64.60
27492;DHT22;14927;51.210;6.838;2023-12-14T11:08:22;11.60;64.50
27492;DHT22;14927;51.210;6.838;2023-12-14T11:11:09;11.60;64.50
27492;DHT22;14927;51.210;6.838;2023-12-14T11:13:56;11.70;64.70
27492;DHT22;14927;51.210;6.838;2023-12-14T11:16:41;11.70;64.80
27492;DHT22;14927;51.210;6.838;2023-12-14T11:19:30;11.70;64.80
27492;DHT22;14927;51.210;6.838;2023-12-14T11:22:23;11.70;65.10
27492;DHT22;14927;51.210;6.838;2023-12-14T11:25:09;11.80;64.90
27492;DHT22;14927;51.210;6.838;2023-12-14T11:27:54;11.70;65.00
27492;DHT22;14927;51.210;6.838;2023-12-14T11:30:47;11.70;65.00
27492;DHT22;14927;51.210;6.838;2023-12-14T11:33:33;11.60;65.00
27492;DHT22;14927;51.210;6.838;2023-12-14T11:36:18;11.70;65.10
27492;DHT22;14927;51.210;6.838;2023-12-14T11:39:06;11.90;65.30
27492;DHT22;14927;51.210;6.838;2023-12-14T11:42:04;11.80;65.00
27492;DHT22;14927;51.210;6.838;2023-12-14T11:44:52;11.70;64.80
27492;DHT22;14927;51.210;6.838;2023-12-14T11:47:37;11.70;64.90
27492;DHT22;14927;51.210;6.838;2023-12-14T11:50:22;11.70;65.00
27492;DHT22;14927;51.210;6.838;2023-12-14T11:53:08;11.70;64.70
27492;DHT22;14927;51.210;6.838;2023-12-14T11:55:53;11.70;64.70
27492;DHT22;14927;51.210;6.838;2023-12-14T11:58:41;11.70;64.80
27492;DHT22;14927;51.210;6.838;2023-12-14T12:01:26;11.70;64.80
27492;DHT22;14927;51.210;6.838;2023-12-14T12:04:12;11.70;65.10
27492;DHT22;14927;51.210;6.838;2023-12-14T12:07:05;11.70;65.10
27492;DHT22;14927;51.210;6.838;2023-12-14T12:09:55;11.70;64.90
27492;DHT22;14927;51.210;6.838;2023-12-14T12:13:02;11.90;65.10
27492;DHT22;14927;51.210;6.838;2023-12-14T12:16:06;11.70;65.00
27492;DHT22;14927;51.210;6.838;2023-12-14T12:31:23;11.60;64.90
27492;DHT22;14927;51.210;6.838;2023-12-14T12:34:15;11.70;64.80
27492;DHT22;14927;51.210;6.838;2023-12-14T12:36:59;11.50;64.80
27492;DHT22;14927;51.210;6.838;2023-12-14T12:42:26;11.60;64.50
27492;DHT22;14927;51.210;6.838;2023-12-14T12:45:10;11.60;64.40
27492;DHT22;14927;51.210;6.838;2023-12-14T12:47:55;12.00;64.60
27492;DHT22;14927;51.210;6.838;2023-12-14T12:50:51;11.90;64.50
27492;DHT22;14927;51.210;6.838;2023-12-14T12:53:44;11.60;63.80
27492;DHT22;14927;51.210;6.838;2023-12-14T12:56:33;11.70;63.70
27492;DHT22;14927;51.210;6.838;2023-12-14T12:59:40;12.00;63.80
27492;DHT22;14927;51.210;6.838;2023-12-14T13:02:29;11.70;63.60
27492;DHT22;14927;51.210;6.838;2023-12-14T13:08:39;11.70;62.90
27492;DHT22;14927;51.210;6.838;2023-12-14T13:11:25;11.70;63.20
27492;DHT22;14927;51.210;6.838;2023-12-14T13:17:32;11.70;63.00
27492;DHT22;14927;51.210;6.838;2023-12-14T13:20:17;11.70;63.00
27492;DHT22;14927;51.210;6.838;2023-12-14T13:23:02;11.70;62.60
27492;DHT22;14927;51.210;6.838;2023-12-14T13:25:47;11.70;62.40
27492;DHT22;14927;51.210;6.838;2023-12-14T13:28:31;11.80;62.40
27492;DHT22;14927;51.210;6.838;2023-12-14T13:31:16;11.70;62.20
27492;DHT22;14927;51.210;6.838;2023-12-14T13:34:01;11.70;62.30
27492;DHT22;14927;51.210;6.838;2023-12-14T13:36:46;11.60;62.30
27492;DHT22;14927;51.210;6.838;2023-12-14T13:52:58;11.50;62.70
27492;DHT22;14927;51.210;6.838;2023-12-14T13:55:46;11.40;62.80
27492;DHT22;14927;51.210;6.838;2023-12-14T13:58:33;11.40;62.80
27492;DHT22;14927;51.210;6.838;2023-12-14T14:01:21;11.50;63.20
27492;DHT22;14927;51.210;6.838;2023-12-14T14:04:06;11.50;62.90
27492;DHT22;14927;51.210;6.838;2023-12-14T14:06:53;11.60;62.90
27492;DHT22;14927;51.210;6.838;2023-12-14T14:09:42;11.40;62.90
27492;DHT22;14927;51.210;6.838;2023-12-14T14:12:28;11.40;63.10
27492;DHT22;14927;51.210;6.838;2023-12-14T14:15:24;11.60;63.40
27492;DHT22;14927;51.210;6.838;2023-12-14T14:18:15;11.40;63.00
27492;DHT22;14927;51.210;6.838;2023-12-14T14:21:00;11.30;63.10
27492;DHT22;14927;51.210;6.838;2023-12-14T14:23:52;11.30;63.00
27492;DHT22;14927;51.210;6.838;2023-12-14T14:26:45;11.30;62.90
27492;DHT22;14927;51.210;6.838;2023-12-14T14:29:33;11.50;63.10
27492;DHT22;14927;51.210;6.838;2023-12-14T14:32:17;11.30;63.00
27492;DHT22;14927;51.210;6.838;2023-12-14T14:35:02;11.20;63.00
27492;DHT22;14927;51.210;6.838;2023-12-14T14:37:51;11.10;63.00
27492;DHT22;14927;51.210;6.838;2023-12-14T14:40:37;11.20;63.10
27492;DHT22;14927;51.210;6.838;2023-12-14T14:43:23;11.20;63.10
27492;DHT22;14927;51.210;6.838;2023-12-14T14:46:12;11.40;63.30
27492;DHT22;14927;51.210;6.838;2023-12-14T14:48:57;11.20;63.10
27492;DHT22;14927;51.210;6.838;2023-12-14T14:59:45;11.20;62.70
27492;DHT22;14927;51.210;6.838;2023-12-14T15:02:35;11.20;62.70
27492;DHT22;14927;51.210;6.838;2023-12-14T15:05:30;11.20;62.70
27492;DHT22;14927;51.210;6.838;2023-12-14T15:08:18;11.00;62.50
27492;DHT22;14927;51.210;6.838;2023-12-14T15:11:03;11.20;62.70
27492;DHT22;14927;51.210;6.838;2023-12-14T15:13:50;11.10;62.70
27492;DHT22;14927;51.210;6.838;2023-12-14T15:16:39;11.10;62.70
27492;DHT22;14927;51.210;6.838;2023-12-14T15:19:23;11.10;62.60
27492;DHT22;14927;51.210;6.838;2023-12-14T15:22:08;11.30;62.80
27492;DHT22;14927;51.210;6.838;2023-12-14T15:25:12;11.10;62.70
27492;DHT22;14927;51.210;6.838;2023-12-14T15:28:10;11.10;62.40
27492;DHT22;14927;51.210;6.838;2023-12-14T15:31:01;11.10;62.70
27492;DHT22;14927;51.210;6.838;2023-12-14T15:33:53;11.10;62.80
27492;DHT22;14927;51.210;6.838;2023-12-14T15:36:38;11.00;62.60
27492;DHT22;14927;51.210;6.838;2023-12-14T15:39:28;11.10;62.60
27492;DHT22;14927;51.210;6.838;2023-12-14T15:42:12;11.00;62.30
27492;DHT22;14927;51.210;6.838;2023-12-14T15:45:06;11.10;62.30
27492;DHT22;14927;51.210;6.838;2023-12-14T15:47:52;11.10;62.20
27492;DHT22;14927;51.210;6.838;2023-12-14T15:50:36;11.10;62.20
27492;DHT22;14927;51.210;6.838;2023-12-14T15:53:22;11.00;62.10
27492;DHT22;14927;51.210;6.838;2023-12-14T15:56:12;11.10;62.10
27492;DHT22;14927;51.210;6.838;2023-12-14T15:59:09;11.00;61.90
27492;DHT22;14927;51.210;6.838;2023-12-14T16:01:55;11.10;62.00
27492;DHT22;14927;51.210;6.838;2023-12-14T16:04:40;11.10;61.80
27492;DHT22;14927;51.210;6.838;2023-12-14T16:07:25;11.00;61.60
27492;DHT22;14927;51.210;6.838;2023-12-14T16:10:10;11.10;61.70
27492;DHT22;14927;51.210;6.838;2023-12-14T16:12:57;11.10;61.70
27492;DHT22;14927;51.210;6.838;2023-12-14T16:15:41;11.00;61.60
27492;DHT22;14927;51.210;6.838;2023-12-14T16:18:26;11.00;61.50
27492;DHT22;14927;51.210;6.838;2023-12-14T16:21:10;11.00;61.60
27492;DHT22;14927;51.210;6.838;2023-12-14T16:23:55;11.10;61.70
27492;DHT22;14927;51.210;6.838;2023-12-14T16:26:39;11.00;61.40
27492;DHT22;14927;51.210;6.838;2023-12-14T16:29:26;11.10;61.60
27492;DHT22;14927;51.210;6.838;2023-12-14T16:32:11;11.00;62.20
27492;DHT22;14927;51.210;6.838;2023-12-14T16:34:55;10.90;61.40
27492;DHT22;14927;51.210;6.838;2023-12-14T16:37:40;11.00;61.40
27492;DHT22;14927;51.210;6.838;2023-12-14T16:40:25;11.00;62.20
27492;DHT22;14927;51.210;6.838;2023-12-14T16:43:09;11.00;61.40
27492;DHT22;14927;51.210;6.838;2023-12-14T16:45:54;11.00;61.50
27492;DHT22;14927;51.210;6.838;2023-12-14T16:48:42;11.00;61.50
27492;DHT22;14927;51.210;6.838;2023-12-14T16:51:26;11.30;61.70
27492;DHT22;14927;51.210;6.838;2023-12-14T16:54:12;11.10;61.30
27492;DHT22;14927;51.210;6.838;2023-12-14T16:57:16;11.00;61.30
27492;DHT22;14927;51.210;6.838;2023-12-14T17:00:15;11.00;61.20
27492;DHT22;14927;51.210;6.838;2023-12-14T17:03:03;11.00;61.40
27492;DHT22;14927;51.210;6.838;2023-12-14T17:05:49;11.00;61.30
27492;DHT22;14927;51.210;6.838;2023-12-14T17:08:39;11.00;61.40
27492;DHT22;14927;51.210;6.838;2023-12-14T17:18:30;10.90;61.20
27492;DHT22;14927;51.210;6.838;2023-12-14T17:21:36;11.00;61.70
27492;DHT22;14927;51.210;6.838;2023-12-14T17:24:21;11.20;61.60
27492;DHT22;14927;51.210;6.838;2023-12-14T17:27:33;11.10;61.90
27492;DHT22;14927;51.210;6.838;2023-12-14T17:30:26;11.00;61.70
27492;DHT22;14927;51.210;6.838;2023-12-14T17:37:15;11.00;61.90
27492;DHT22;14927;51.210;6.838;2023-12-14T17:40:25;11.00;62.00
27492;DHT22;14927;51.210;6.838;2023-12-14T17:43:18;11.00;61.80
27492;DHT22;14927;51.210;6.838;2023-12-14T17:46:05;10.90;61.80
27492;DHT22;14927;51.210;6.838;2023-12-14T17:49:10;11.00;62.00
27492;DHT22;14927;51.210;6.838;2023-12-14T17:55:54;10.90;61.60
27492;DHT22;14927;51.210;6.838;2023-12-14T17:58:45;10.90;61.80
27492;DHT22;14927;51.210;6.838;2023-12-14T18:01:29;10.90;61.70
27492;DHT22;14927;51.210;6.838;2023-12-14T18:04:14;10.90;61.60
27492;DHT22;14927;51.210;6.838;2023-12-14T18:06:59;11.00;61.60
27492;DHT22;14927;51.210;6.838;2023-12-14T18:09:44;10.80;61.40
27492;DHT22;14927;51.210;6.838;2023-12-14T18:12:28;10.80;61.40
27492;DHT22;14927;51.210;6.838;2023-12-14T18:15:13;10.80;61.40
27492;DHT22;14927;51.210;6.838;2023-12-14T18:17:58;10.70;61.30
27492;DHT22;14927;51.210;6.838;2023-12-14T18:20:42;11.00;61.60
27492;DHT22;14927;51.210;6.838;2023-12-14T18:23:27;10.70;61.40
27492;DHT22;14927;51.210;6.838;2023-12-14T18:26:12;10.70;61.60
27492;DHT22;14927;51.210;6.838;2023-12-14T18:28:56;10.70;61.80
27492;DHT22;14927;51.210;6.838;2023-12-14T18:31:41;10.60;61.90
27492;DHT22;14927;51.210;6.838;2023-12-14T18:34:26;10.60;62.00